sensor_id;sensor_type;location;lat;lon;timestamp;P1;durP1;ratioP1;P2;durP2;ratioP2
33794;SDS011;51430;52.242;21.118;2023-04-25T00:01:46;13.50;;;12.40;;
33794;SDS011;51430;52.242;21.118;2023-04-25T00:04:13;13.80;;;12.60;;
33794;SDS011;51430;52.242;21.118;2023-04-25T00:06:40;13.70;;;12.50;;
33794;SDS011;51430;52.242;21.118;2023-04-25T00:09:06;14.00;;;12.60;;
33794;SDS011;51430;52.242;21.118;2023-04-25T00:11:37;13.70;;;12.40;;
33794;SDS011;51430;52.242;21.118;2023-04-25T00:14:04;14.40;;;13.00;;
33794;SDS011;51430;52.242;21.118;2023-04-25T00:16:30;14.20;;;12.90;;
33794;SDS011;51430;52.242;21.118;2023-04-25T00:19:02;14.50;;;13.00;;
33794;SDS011;51430;52.242;21.118;2023-04-25T00:21:29;14.50;;;13.20;;
33794;SDS011;51430;52.242;21.118;2023-04-25T00:23:57;14.70;;;13.30;;
33794;SDS011;51430;52.242;21.118;2023-04-25T00:26:25;14.30;;;13.00;;
33794;SDS011;51430;52.242;21.118;2023-04-25T00:28:52;16.50;;;13.50;;
33794;SDS011;51430;52.242;21.118;2023-04-25T00:31:19;14.80;;;13.40;;
33794;SDS011;51430;52.242;21.118;2023-04-25T00:33:49;14.90;;;13.50;;
33794;SDS011;51430;52.242;21.118;2023-04-25T00:36:16;15.30;;;13.90;;
33794;SDS011;51430;52.242;21.118;2023-04-25T00:38:43;15.30;;;13.90;;
33794;SDS011;51430;52.242;21.118;2023-04-25T00:41:09;15.40;;;14.00;;
33794;SDS011;51430;52.242;21.118;2023-04-25T00:43:36;14.70;;;13.40;;
33794;SDS011;51430;52.242;21.118;2023-04-25T00:46:06;14.50;;;13.10;;
33794;SDS011;51430;52.242;21.118;2023-04-25T00:48:32;15.30;;;13.90;;
33794;SDS011;51430;52.242;21.118;2023-04-25T00:50:58;15.10;;;13.70;;
33794;SDS011;51430;52.242;21.118;2023-04-25T00:53:27;15.60;;;14.10;;
33794;SDS011;51430;52.242;21.118;2023-04-25T00:55:54;15.80;;;14.40;;
33794;SDS011;51430;52.242;21.118;2023-04-25T00:58:21;15.80;;;14.30;;
33794;SDS011;51430;52.242;21.118;2023-04-25T01:00:49;16.20;;;14.60;;
33794;SDS011;51430;52.242;21.118;2023-04-25T01:03:17;16.50;;;14.80;;
33794;SDS011;51430;52.242;21.118;2023-04-25T01:05:46;16.50;;;15.00;;
33794;SDS011;51430;52.242;21.118;2023-04-25T01:08:14;16.30;;;14.70;;
33794;SDS011;51430;52.242;21.118;2023-04-25T01:10:40;16.60;;;14.90;;
33794;SDS011;51430;52.242;21.118;2023-04-25T01:13:07;17.00;;;15.50;;
33794;SDS011;51430;52.242;21.118;2023-04-25T01:15:33;16.30;;;14.80;;
33794;SDS011;51430;52.242;21.118;2023-04-25T01:18:02;17.30;;;15.70;;
33794;SDS011;51430;52.242;21.118;2023-04-25T01:20:29;17.10;;;15.50;;
33794;SDS011;51430;52.242;21.118;2023-04-25T01:22:58;17.20;;;15.60;;
33794;SDS011;51430;52.242;21.118;2023-04-25T01:25:25;16.30;;;14.90;;
33794;SDS011;51430;52.242;21.118;2023-04-25T01:27:52;17.30;;;15.70;;
33794;SDS011;51430;52.242;21.118;2023-04-25T01:30:19;17.10;;;15.50;;
33794;SDS011;51430;52.242;21.118;2023-04-25T01:32:46;17.40;;;15.80;;
33794;SDS011;51430;52.242;21.118;2023-04-25T01:35:14;17.40;;;15.70;;
33794;SDS011;51430;52.242;21.118;2023-04-25T01:37:43;17.90;;;16.10;;
33794;SDS011;51430;52.242;21.118;2023-04-25T01:40:10;17.30;;;15.60;;
33794;SDS011;51430;52.242;21.118;2023-04-25T01:42:39;18.00;;;16.20;;
33794;SDS011;51430;52.242;21.118;2023-04-25T01:45:07;17.60;;;16.00;;
33794;SDS011;51430;52.242;21.118;2023-04-25T01:47:34;16.80;;;15.40;;
33794;SDS011;51430;52.242;21.118;2023-04-25T01:50:02;16.80;;;15.30;;
33794;SDS011;51430;52.242;21.118;2023-04-25T01:52:32;16.50;;;15.00;;
33794;SDS011;51430;52.242;21.118;2023-04-25T01:54:59;17.70;;;16.00;;
33794;SDS011;51430;52.242;21.118;2023-04-25T01:57:27;18.30;;;16.60;;
33794;SDS011;51430;52.242;21.118;2023-04-25T01:59:55;17.40;;;15.90;;
33794;SDS011;51430;52.242;21.118;2023-04-25T02:02:25;17.30;;;15.80;;
33794;SDS011;51430;52.242;21.118;2023-04-25T02:04:52;17.00;;;15.50;;
33794;SDS011;51430;52.242;21.118;2023-04-25T02:07:20;16.70;;;15.30;;
33794;SDS011;51430;52.242;21.118;2023-04-25T02:09:46;17.00;;;15.60;;
33794;SDS011;51430;52.242;21.118;2023-04-25T02:12:13;16.80;;;15.30;;
33794;SDS011;51430;52.242;21.118;2023-04-25T02:14:39;17.50;;;16.00;;
33794;SDS011;51430;52.242;21.118;2023-04-25T02:17:07;16.80;;;15.40;;
33794;SDS011;51430;52.242;21.118;2023-04-25T02:19:33;17.80;;;16.10;;
33794;SDS011;51430;52.242;21.118;2023-04-25T02:22:00;18.90;;;17.20;;
33794;SDS011;51430;52.242;21.118;2023-04-25T02:24:26;18.00;;;16.50;;
33794;SDS011;51430;52.242;21.118;2023-04-25T02:26:54;17.20;;;15.80;;
33794;SDS011;51430;52.242;21.118;2023-04-25T02:29:21;17.20;;;15.80;;
33794;SDS011;51430;52.242;21.118;2023-04-25T02:31:48;17.10;;;15.60;;
33794;SDS011;51430;52.242;21.118;2023-04-25T02:34:14;17.70;;;16.10;;
33794;SDS011;51430;52.242;21.118;2023-04-25T02:36:41;16.40;;;14.90;;
33794;SDS011;51430;52.242;21.118;2023-04-25T02:39:07;16.90;;;15.40;;
33794;SDS011;51430;52.242;21.118;2023-04-25T02:41:34;15.70;;;14.40;;
33794;SDS011;51430;52.242;21.118;2023-04-25T02:44:00;15.90;;;14.60;;
33794;SDS011;51430;52.242;21.118;2023-04-25T02:46:26;15.80;;;14.50;;
33794;SDS011;51430;52.242;21.118;2023-04-25T02:49:05;15.10;;;13.80;;
33794;SDS011;51430;52.242;21.118;2023-04-25T02:51:32;16.50;;;15.10;;
33794;SDS011;51430;52.242;21.118;2023-04-25T02:53:59;15.60;;;14.30;;
33794;SDS011;51430;52.242;21.118;2023-04-25T02:56:25;14.90;;;13.70;;
33794;SDS011;51430;52.242;21.118;2023-04-25T02:58:53;14.80;;;13.50;;
33794;SDS011;51430;52.242;21.118;2023-04-25T03:01:19;14.50;;;13.20;;
33794;SDS011;51430;52.242;21.118;2023-04-25T03:03:46;14.80;;;13.50;;
33794;SDS011;51430;52.242;21.118;2023-04-25T03:06:15;15.40;;;14.00;;
33794;SDS011;51430;52.242;21.118;2023-04-25T03:08:42;15.10;;;13.80;;
33794;SDS011;51430;52.242;21.118;2023-04-25T03:11:09;14.20;;;13.00;;
33794;SDS011;51430;52.242;21.118;2023-04-25T03:13:36;15.00;;;13.60;;
33794;SDS011;51430;52.242;21.118;2023-04-25T03:16:02;14.80;;;13.40;;
33794;SDS011;51430;52.242;21.118;2023-04-25T03:18:29;13.80;;;12.60;;
33794;SDS011;51430;52.242;21.118;2023-04-25T03:20:55;13.80;;;12.40;;
33794;SDS011;51430;52.242;21.118;2023-04-25T03:23:23;13.70;;;12.40;;
33794;SDS011;51430;52.242;21.118;2023-04-25T03:25:49;13.70;;;12.40;;
33794;SDS011;51430;52.242;21.118;2023-04-25T03:28:16;13.40;;;12.20;;
33794;SDS011;51430;52.242;21.118;2023-04-25T03:30:42;13.20;;;12.00;;
33794;SDS011;51430;52.242;21.118;2023-04-25T03:33:08;13.50;;;12.30;;
33794;SDS011;51430;52.242;21.118;2023-04-25T03:35:35;13.30;;;12.10;;
33794;SDS011;51430;52.242;21.118;2023-04-25T03:38:01;12.70;;;11.60;;
33794;SDS011;51430;52.242;21.118;2023-04-25T03:40:28;12.60;;;11.60;;
33794;SDS011;51430;52.242;21.118;2023-04-25T03:42:54;12.20;;;11.10;;
33794;SDS011;51430;52.242;21.118;2023-04-25T03:45:21;12.40;;;11.20;;
33794;SDS011;51430;52.242;21.118;2023-04-25T03:47:48;12.90;;;11.80;;
33794;SDS011;51430;52.242;21.118;2023-04-25T03:50:14;12.70;;;11.60;;
33794;SDS011;51430;52.242;21.118;2023-04-25T03:59:52;10.40;;;9.40;;
33794;SDS011;51430;52.242;21.118;2023-04-25T04:02:20;12.30;;;11.00;;
33794;SDS011;51430;52.242;21.118;2023-04-25T04:04:48;11.90;;;10.90;;
33794;SDS011;51430;52.242;21.118;2023-04-25T04:07:16;12.00;;;10.90;;
33794;SDS011;51430;52.242;21.118;2023-04-25T04:09:44;13.50;;;12.30;;
33794;SDS011;51430;52.242;21.118;2023-04-25T04:12:12;13.70;;;12.60;;
33794;SDS011;51430;52.242;21.118;2023-04-25T04:14:40;13.00;;;11.70;;
33794;SDS011;51430;52.242;21.118;2023-04-25T04:17:07;12.40;;;11.20;;
33794;SDS011;51430;52.242;21.118;2023-04-25T04:19:35;12.00;;;10.90;;
33794;SDS011;51430;52.242;21.118;2023-04-25T04:22:03;11.30;;;10.30;;
33794;SDS011;51430;52.242;21.118;2023-04-25T04:24:31;12.00;;;10.90;;
33794;SDS011;51430;52.242;21.118;2023-04-25T04:26:59;12.30;;;11.20;;
33794;SDS011;51430;52.242;21.118;2023-04-25T04:29:27;11.50;;;10.50;;
33794;SDS011;51430;52.242;21.118;2023-04-25T04:31:55;11.40;;;10.50;;
33794;SDS011;51430;52.242;21.118;2023-04-25T04:34:23;11.20;;;10.30;;
33794;SDS011;51430;52.242;21.118;2023-04-25T04:36:52;11.80;;;10.80;;
33794;SDS011;51430;52.242;21.118;2023-04-25T04:39:20;11.70;;;10.80;;
33794;SDS011;51430;52.242;21.118;2023-04-25T04:41:48;11.80;;;10.60;;
33794;SDS011;51430;52.242;21.118;2023-04-25T04:44:16;12.00;;;10.80;;
33794;SDS011;51430;52.242;21.118;2023-04-25T04:46:44;11.20;;;10.20;;
33794;SDS011;51430;52.242;21.118;2023-04-25T04:49:12;11.40;;;10.40;;
33794;SDS011;51430;52.242;21.118;2023-04-25T04:51:41;11.50;;;10.50;;
33794;SDS011;51430;52.242;21.118;2023-04-25T04:54:11;11.00;;;10.10;;
33794;SDS011;51430;52.242;21.118;2023-04-25T04:56:39;11.50;;;10.50;;
33794;SDS011;51430;52.242;21.118;2023-04-25T04:59:07;11.30;;;10.20;;
33794;SDS011;51430;52.242;21.118;2023-04-25T05:01:36;11.00;;;10.00;;
33794;SDS011;51430;52.242;21.118;2023-04-25T05:04:04;10.90;;;9.90;;
33794;SDS011;51430;52.242;21.118;2023-04-25T05:06:34;10.50;;;9.40;;
33794;SDS011;51430;52.242;21.118;2023-04-25T05:09:02;9.70;;;8.90;;
33794;SDS011;51430;52.242;21.118;2023-04-25T05:11:30;10.20;;;9.20;;
33794;SDS011;51430;52.242;21.118;2023-04-25T05:13:58;10.20;;;9.30;;
33794;SDS011;51430;52.242;21.118;2023-04-25T05:16:25;10.20;;;9.30;;
33794;SDS011;51430;52.242;21.118;2023-04-25T05:18:53;10.10;;;9.30;;
33794;SDS011;51430;52.242;21.118;2023-04-25T05:21:21;10.40;;;9.50;;
33794;SDS011;51430;52.242;21.118;2023-04-25T05:23:49;10.10;;;9.30;;
33794;SDS011;51430;52.242;21.118;2023-04-25T05:26:18;10.20;;;9.40;;
33794;SDS011;51430;52.242;21.118;2023-04-25T05:28:46;10.20;;;9.40;;
33794;SDS011;51430;52.242;21.118;2023-04-25T05:31:13;10.00;;;9.20;;
33794;SDS011;51430;52.242;21.118;2023-04-25T05:33:41;10.30;;;9.50;;
33794;SDS011;51430;52.242;21.118;2023-04-25T05:36:09;10.40;;;9.40;;
33794;SDS011;51430;52.242;21.118;2023-04-25T05:38:37;10.20;;;9.40;;
33794;SDS011;51430;52.242;21.118;2023-04-25T05:41:04;10.30;;;9.40;;
33794;SDS011;51430;52.242;21.118;2023-04-25T05:43:32;9.70;;;9.00;;
33794;SDS011;51430;52.242;21.118;2023-04-25T05:46:00;10.20;;;9.40;;
33794;SDS011;51430;52.242;21.118;2023-04-25T05:48:28;10.30;;;9.40;;
33794;SDS011;51430;52.242;21.118;2023-04-25T05:50:56;9.70;;;8.90;;
33794;SDS011;51430;52.242;21.118;2023-04-25T05:53:24;10.00;;;9.20;;
33794;SDS011;51430;52.242;21.118;2023-04-25T05:55:55;10.10;;;9.30;;
33794;SDS011;51430;52.242;21.118;2023-04-25T05:58:22;10.10;;;9.30;;
33794;SDS011;51430;52.242;21.118;2023-04-25T06:00:51;11.30;;;10.00;;
33794;SDS011;51430;52.242;21.118;2023-04-25T06:03:19;10.60;;;9.60;;
33794;SDS011;51430;52.242;21.118;2023-04-25T06:05:48;10.80;;;9.80;;
33794;SDS011;51430;52.242;21.118;2023-04-25T06:08:15;11.60;;;10.50;;
33794;SDS011;51430;52.242;21.118;2023-04-25T06:10:43;11.20;;;10.20;;
33794;SDS011;51430;52.242;21.118;2023-04-25T06:13:11;11.20;;;10.40;;
33794;SDS011;51430;52.242;21.118;2023-04-25T06:15:39;11.50;;;10.50;;
33794;SDS011;51430;52.242;21.118;2023-04-25T06:18:07;11.70;;;10.70;;
33794;SDS011;51430;52.242;21.118;2023-04-25T06:20:35;11.00;;;10.10;;
33794;SDS011;51430;52.242;21.118;2023-04-25T06:23:02;11.80;;;9.80;;
33794;SDS011;51430;52.242;21.118;2023-04-25T06:25:30;10.40;;;9.50;;
33794;SDS011;51430;52.242;21.118;2023-04-25T06:27:58;10.50;;;9.60;;
33794;SDS011;51430;52.242;21.118;2023-04-25T06:30:26;9.90;;;9.00;;
33794;SDS011;51430;52.242;21.118;2023-04-25T06:32:54;10.40;;;9.50;;
33794;SDS011;51430;52.242;21.118;2023-04-25T06:35:22;9.50;;;8.60;;
33794;SDS011;51430;52.242;21.118;2023-04-25T06:37:50;9.60;;;8.80;;
33794;SDS011;51430;52.242;21.118;2023-04-25T06:40:18;9.60;;;8.50;;
33794;SDS011;51430;52.242;21.118;2023-04-25T06:42:46;10.20;;;9.20;;
33794;SDS011;51430;52.242;21.118;2023-04-25T06:45:15;10.30;;;9.30;;
33794;SDS011;51430;52.242;21.118;2023-04-25T06:47:42;12.10;;;11.10;;
33794;SDS011;51430;52.242;21.118;2023-04-25T06:50:10;11.80;;;10.80;;
33794;SDS011;51430;52.242;21.118;2023-04-25T06:52:38;14.20;;;13.00;;
33794;SDS011;51430;52.242;21.118;2023-04-25T06:55:06;16.60;;;15.20;;
33794;SDS011;51430;52.242;21.118;2023-04-25T06:57:34;18.80;;;17.20;;
33794;SDS011;51430;52.242;21.118;2023-04-25T07:00:02;19.20;;;17.40;;
33794;SDS011;51430;52.242;21.118;2023-04-25T07:02:33;18.30;;;16.70;;
33794;SDS011;51430;52.242;21.118;2023-04-25T07:05:01;21.60;;;19.70;;
33794;SDS011;51430;52.242;21.118;2023-04-25T07:07:31;20.10;;;18.50;;
33794;SDS011;51430;52.242;21.118;2023-04-25T07:09:59;20.10;;;18.50;;
33794;SDS011;51430;52.242;21.118;2023-04-25T07:12:26;18.60;;;17.10;;
33794;SDS011;51430;52.242;21.118;2023-04-25T07:14:54;19.80;;;18.20;;
33794;SDS011;51430;52.242;21.118;2023-04-25T07:17:22;15.80;;;14.60;;
33794;SDS011;51430;52.242;21.118;2023-04-25T07:19:56;14.50;;;13.30;;
33794;SDS011;51430;52.242;21.118;2023-04-25T07:22:24;18.50;;;17.00;;
33794;SDS011;51430;52.242;21.118;2023-04-25T07:24:53;18.70;;;17.20;;
33794;SDS011;51430;52.242;21.118;2023-04-25T07:27:21;17.90;;;16.50;;
33794;SDS011;51430;52.242;21.118;2023-04-25T07:29:49;13.20;;;12.10;;
33794;SDS011;51430;52.242;21.118;2023-04-25T07:32:17;13.40;;;12.10;;
33794;SDS011;51430;52.242;21.118;2023-04-25T07:34:45;13.50;;;12.40;;
33794;SDS011;51430;52.242;21.118;2023-04-25T07:37:14;11.20;;;10.30;;
33794;SDS011;51430;52.242;21.118;2023-04-25T07:39:42;11.70;;;10.70;;
33794;SDS011;51430;52.242;21.118;2023-04-25T07:42:10;12.30;;;11.30;;
33794;SDS011;51430;52.242;21.118;2023-04-25T07:44:38;11.50;;;10.50;;
33794;SDS011;51430;52.242;21.118;2023-04-25T07:47:07;12.60;;;11.50;;
33794;SDS011;51430;52.242;21.118;2023-04-25T07:49:36;12.70;;;11.60;;
33794;SDS011;51430;52.242;21.118;2023-04-25T07:52:04;12.30;;;11.30;;
33794;SDS011;51430;52.242;21.118;2023-04-25T07:54:36;12.50;;;11.50;;
33794;SDS011;51430;52.242;21.118;2023-04-25T07:57:03;12.30;;;11.30;;
33794;SDS011;51430;52.242;21.118;2023-04-25T07:59:33;12.80;;;11.80;;
33794;SDS011;51430;52.242;21.118;2023-04-25T08:02:01;11.70;;;10.60;;
33794;SDS011;51430;52.242;21.118;2023-04-25T08:04:30;11.30;;;10.40;;
33794;SDS011;51430;52.242;21.118;2023-04-25T08:06:58;11.80;;;10.90;;
33794;SDS011;51430;52.242;21.118;2023-04-25T08:09:26;11.40;;;10.50;;
33794;SDS011;51430;52.242;21.118;2023-04-25T08:11:54;9.80;;;9.10;;
33794;SDS011;51430;52.242;21.118;2023-04-25T08:14:22;9.70;;;9.00;;
33794;SDS011;51430;52.242;21.118;2023-04-25T08:16:49;9.40;;;8.60;;
33794;SDS011;51430;52.242;21.118;2023-04-25T08:19:17;9.70;;;8.90;;
33794;SDS011;51430;52.242;21.118;2023-04-25T08:21:45;10.50;;;9.70;;
33794;SDS011;51430;52.242;21.118;2023-04-25T08:24:13;10.20;;;9.50;;
33794;SDS011;51430;52.242;21.118;2023-04-25T08:26:40;10.30;;;9.30;;
33794;SDS011;51430;52.242;21.118;2023-04-25T08:29:08;9.40;;;8.70;;
33794;SDS011;51430;52.242;21.118;2023-04-25T08:31:36;10.00;;;9.00;;
33794;SDS011;51430;52.242;21.118;2023-04-25T08:34:04;9.80;;;9.00;;
33794;SDS011;51430;52.242;21.118;2023-04-25T08:36:32;10.80;;;10.00;;
33794;SDS011;51430;52.242;21.118;2023-04-25T08:39:05;12.10;;;11.10;;
33794;SDS011;51430;52.242;21.118;2023-04-25T08:41:36;12.20;;;11.30;;
33794;SDS011;51430;52.242;21.118;2023-04-25T08:44:04;11.80;;;10.90;;
33794;SDS011;51430;52.242;21.118;2023-04-25T08:46:32;11.60;;;10.50;;
33794;SDS011;51430;52.242;21.118;2023-04-25T08:49:01;10.10;;;9.30;;
33794;SDS011;51430;52.242;21.118;2023-04-25T08:51:31;11.30;;;10.40;;
33794;SDS011;51430;52.242;21.118;2023-04-25T08:54:09;10.30;;;9.60;;
33794;SDS011;51430;52.242;21.118;2023-04-25T08:56:57;11.20;;;10.40;;
33794;SDS011;51430;52.242;21.118;2023-04-25T08:59:32;9.50;;;8.80;;
33794;SDS011;51430;52.242;21.118;2023-04-25T09:02:00;9.30;;;8.60;;
33794;SDS011;51430;52.242;21.118;2023-04-25T09:04:30;8.30;;;7.80;;
33794;SDS011;51430;52.242;21.118;2023-04-25T09:06:59;8.70;;;8.00;;
33794;SDS011;51430;52.242;21.118;2023-04-25T09:09:27;9.00;;;8.40;;
33794;SDS011;51430;52.242;21.118;2023-04-25T09:11:54;10.60;;;9.80;;
33794;SDS011;51430;52.242;21.118;2023-04-25T09:14:23;12.70;;;11.80;;
33794;SDS011;51430;52.242;21.118;2023-04-25T09:19:30;13.40;;;12.50;;
33794;SDS011;51430;52.242;21.118;2023-04-25T09:22:04;14.60;;;13.40;;
33794;SDS011;51430;52.242;21.118;2023-04-25T09:24:33;11.70;;;10.80;;
33794;SDS011;51430;52.242;21.118;2023-04-25T09:27:12;10.70;;;9.80;;
33794;SDS011;51430;52.242;21.118;2023-04-25T09:29:45;10.50;;;9.60;;
33794;SDS011;51430;52.242;21.118;2023-04-25T09:34:49;12.80;;;11.70;;
33794;SDS011;51430;52.242;21.118;2023-04-25T09:37:19;14.80;;;13.70;;
33794;SDS011;51430;52.242;21.118;2023-04-25T09:39:48;13.90;;;12.90;;
33794;SDS011;51430;52.242;21.118;2023-04-25T09:42:28;10.50;;;9.70;;
33794;SDS011;51430;52.242;21.118;2023-04-25T09:45:00;10.10;;;9.40;;
33794;SDS011;51430;52.242;21.118;2023-04-25T09:47:32;10.20;;;9.40;;
33794;SDS011;51430;52.242;21.118;2023-04-25T09:50:24;8.90;;;8.20;;
33794;SDS011;51430;52.242;21.118;2023-04-25T09:53:04;9.80;;;8.90;;
33794;SDS011;51430;52.242;21.118;2023-04-25T09:55:33;10.80;;;10.00;;
33794;SDS011;51430;52.242;21.118;2023-04-25T09:58:05;12.90;;;11.80;;
33794;SDS011;51430;52.242;21.118;2023-04-25T10:00:36;12.30;;;11.30;;
33794;SDS011;51430;52.242;21.118;2023-04-25T10:03:05;12.30;;;11.40;;
33794;SDS011;51430;52.242;21.118;2023-04-25T10:05:33;12.10;;;11.20;;
33794;SDS011;51430;52.242;21.118;2023-04-25T10:08:03;15.20;;;13.90;;
33794;SDS011;51430;52.242;21.118;2023-04-25T10:10:32;13.30;;;12.20;;
33794;SDS011;51430;52.242;21.118;2023-04-25T10:13:04;13.90;;;12.90;;
33794;SDS011;51430;52.242;21.118;2023-04-25T10:15:34;15.00;;;13.90;;
33794;SDS011;51430;52.242;21.118;2023-04-25T10:18:06;15.30;;;14.00;;
33794;SDS011;51430;52.242;21.118;2023-04-25T10:20:35;14.80;;;13.70;;
33794;SDS011;51430;52.242;21.118;2023-04-25T10:23:06;13.80;;;12.80;;
33794;SDS011;51430;52.242;21.118;2023-04-25T10:25:44;14.00;;;13.00;;
33794;SDS011;51430;52.242;21.118;2023-04-25T10:28:13;14.30;;;13.20;;
33794;SDS011;51430;52.242;21.118;2023-04-25T10:30:57;14.60;;;13.50;;
33794;SDS011;51430;52.242;21.118;2023-04-25T10:33:35;15.00;;;13.90;;
33794;SDS011;51430;52.242;21.118;2023-04-25T10:36:09;15.60;;;14.40;;
33794;SDS011;51430;52.242;21.118;2023-04-25T10:38:43;15.40;;;14.20;;
33794;SDS011;51430;52.242;21.118;2023-04-25T10:41:13;16.10;;;15.00;;
33794;SDS011;51430;52.242;21.118;2023-04-25T10:43:42;16.00;;;14.90;;
33794;SDS011;51430;52.242;21.118;2023-04-25T10:46:17;16.90;;;15.70;;
33794;SDS011;51430;52.242;21.118;2023-04-25T10:48:50;18.00;;;16.60;;
33794;SDS011;51430;52.242;21.118;2023-04-25T10:56:25;18.00;;;16.80;;
33794;SDS011;51430;52.242;21.118;2023-04-25T10:59:10;18.60;;;17.10;;
33794;SDS011;51430;52.242;21.118;2023-04-25T11:01:40;20.00;;;18.40;;
33794;SDS011;51430;52.242;21.118;2023-04-25T11:04:23;18.40;;;17.10;;
33794;SDS011;51430;52.242;21.118;2023-04-25T11:07:06;18.80;;;17.40;;
33794;SDS011;51430;52.242;21.118;2023-04-25T11:09:41;18.30;;;16.90;;
33794;SDS011;51430;52.242;21.118;2023-04-25T11:12:09;17.50;;;16.20;;
33794;SDS011;51430;52.242;21.118;2023-04-25T11:14:39;16.80;;;15.50;;
33794;SDS011;51430;52.242;21.118;2023-04-25T11:17:12;17.80;;;16.50;;
33794;SDS011;51430;52.242;21.118;2023-04-25T11:19:39;17.10;;;15.90;;
33794;SDS011;51430;52.242;21.118;2023-04-25T11:22:07;17.10;;;15.90;;
33794;SDS011;51430;52.242;21.118;2023-04-25T11:24:37;16.10;;;14.70;;
33794;SDS011;51430;52.242;21.118;2023-04-25T11:27:05;14.90;;;13.70;;
33794;SDS011;51430;52.242;21.118;2023-04-25T11:29:34;14.70;;;13.70;;
33794;SDS011;51430;52.242;21.118;2023-04-25T11:32:02;15.80;;;14.50;;
33794;SDS011;51430;52.242;21.118;2023-04-25T11:34:31;14.40;;;13.40;;
33794;SDS011;51430;52.242;21.118;2023-04-25T11:37:03;11.50;;;10.50;;
33794;SDS011;51430;52.242;21.118;2023-04-25T11:39:34;11.20;;;10.40;;
33794;SDS011;51430;52.242;21.118;2023-04-25T11:42:02;10.70;;;9.80;;
33794;SDS011;51430;52.242;21.118;2023-04-25T11:44:34;9.50;;;8.70;;
33794;SDS011;51430;52.242;21.118;2023-04-25T11:47:02;8.90;;;8.20;;
33794;SDS011;51430;52.242;21.118;2023-04-25T11:49:31;8.50;;;7.80;;
33794;SDS011;51430;52.242;21.118;2023-04-25T11:51:59;8.90;;;8.20;;
33794;SDS011;51430;52.242;21.118;2023-04-25T11:54:27;9.90;;;9.10;;
33794;SDS011;51430;52.242;21.118;2023-04-25T11:56:55;8.90;;;8.20;;
33794;SDS011;51430;52.242;21.118;2023-04-25T11:59:24;8.80;;;8.00;;
33794;SDS011;51430;52.242;21.118;2023-04-25T12:01:53;8.90;;;8.10;;
33794;SDS011;51430;52.242;21.118;2023-04-25T12:04:22;10.10;;;9.30;;
33794;SDS011;51430;52.242;21.118;2023-04-25T12:06:52;8.20;;;7.50;;
33794;SDS011;51430;52.242;21.118;2023-04-25T12:09:29;7.30;;;6.80;;
33794;SDS011;51430;52.242;21.118;2023-04-25T12:11:59;8.30;;;7.50;;
33794;SDS011;51430;52.242;21.118;2023-04-25T12:14:32;7.80;;;7.00;;
33794;SDS011;51430;52.242;21.118;2023-04-25T12:17:02;7.90;;;7.10;;
33794;SDS011;51430;52.242;21.118;2023-04-25T12:19:33;7.80;;;7.00;;
33794;SDS011;51430;52.242;21.118;2023-04-25T12:22:02;8.50;;;7.90;;
33794;SDS011;51430;52.242;21.118;2023-04-25T12:24:45;8.30;;;7.60;;
33794;SDS011;51430;52.242;21.118;2023-04-25T12:27:14;8.40;;;7.80;;
33794;SDS011;51430;52.242;21.118;2023-04-25T12:29:50;8.00;;;7.40;;
33794;SDS011;51430;52.242;21.118;2023-04-25T12:32:20;8.40;;;7.80;;
33794;SDS011;51430;52.242;21.118;2023-04-25T12:34:50;8.10;;;7.50;;
33794;SDS011;51430;52.242;21.118;2023-04-25T12:37:17;9.20;;;8.40;;
33794;SDS011;51430;52.242;21.118;2023-04-25T12:39:45;8.20;;;7.60;;
33794;SDS011;51430;52.242;21.118;2023-04-25T12:42:13;8.70;;;7.80;;
33794;SDS011;51430;52.242;21.118;2023-04-25T12:44:41;8.20;;;7.50;;
33794;SDS011;51430;52.242;21.118;2023-04-25T12:47:09;8.20;;;7.50;;
33794;SDS011;51430;52.242;21.118;2023-04-25T12:49:37;7.10;;;6.50;;
33794;SDS011;51430;52.242;21.118;2023-04-25T12:52:05;7.00;;;6.50;;
33794;SDS011;51430;52.242;21.118;2023-04-25T12:54:33;7.10;;;6.50;;
33794;SDS011;51430;52.242;21.118;2023-04-25T12:57:00;7.40;;;6.70;;
33794;SDS011;51430;52.242;21.118;2023-04-25T12:59:30;7.50;;;6.80;;
33794;SDS011;51430;52.242;21.118;2023-04-25T13:01:58;6.20;;;5.70;;
33794;SDS011;51430;52.242;21.118;2023-04-25T13:04:27;6.20;;;5.60;;
33794;SDS011;51430;52.242;21.118;2023-04-25T13:06:55;5.40;;;4.90;;
33794;SDS011;51430;52.242;21.118;2023-04-25T13:09:23;5.80;;;5.30;;
33794;SDS011;51430;52.242;21.118;2023-04-25T13:11:51;5.00;;;4.60;;
33794;SDS011;51430;52.242;21.118;2023-04-25T13:14:22;5.00;;;4.50;;
33794;SDS011;51430;52.242;21.118;2023-04-25T13:16:50;5.10;;;4.60;;
33794;SDS011;51430;52.242;21.118;2023-04-25T13:19:18;5.20;;;4.70;;
33794;SDS011;51430;52.242;21.118;2023-04-25T13:21:45;4.60;;;4.30;;
33794;SDS011;51430;52.242;21.118;2023-04-25T13:24:13;5.10;;;4.60;;
33794;SDS011;51430;52.242;21.118;2023-04-25T13:26:41;4.70;;;4.40;;
33794;SDS011;51430;52.242;21.118;2023-04-25T13:29:09;5.00;;;4.60;;
33794;SDS011;51430;52.242;21.118;2023-04-25T13:31:36;5.00;;;4.40;;
33794;SDS011;51430;52.242;21.118;2023-04-25T13:34:04;5.50;;;4.20;;
33794;SDS011;51430;52.242;21.118;2023-04-25T13:36:32;5.50;;;4.30;;
33794;SDS011;51430;52.242;21.118;2023-04-25T13:39:00;5.40;;;4.40;;
33794;SDS011;51430;52.242;21.118;2023-04-25T13:41:28;4.80;;;4.40;;
33794;SDS011;51430;52.242;21.118;2023-04-25T13:43:55;5.50;;;4.50;;
33794;SDS011;51430;52.242;21.118;2023-04-25T13:46:23;5.40;;;3.90;;
33794;SDS011;51430;52.242;21.118;2023-04-25T13:49:11;4.00;;;3.60;;
33794;SDS011;51430;52.242;21.118;2023-04-25T13:51:40;4.20;;;3.70;;
33794;SDS011;51430;52.242;21.118;2023-04-25T13:54:10;3.40;;;3.10;;
33794;SDS011;51430;52.242;21.118;2023-04-25T13:56:37;3.20;;;2.00;;
33794;SDS011;51430;52.242;21.118;2023-04-25T13:59:05;3.40;;;1.80;;
33794;SDS011;51430;52.242;21.118;2023-04-25T14:01:33;4.10;;;2.10;;
33794;SDS011;51430;52.242;21.118;2023-04-25T14:04:03;3.10;;;2.00;;
33794;SDS011;51430;52.242;21.118;2023-04-25T14:06:33;2.20;;;2.00;;
33794;SDS011;51430;52.242;21.118;2023-04-25T14:09:01;3.50;;;2.30;;
33794;SDS011;51430;52.242;21.118;2023-04-25T14:11:32;2.90;;;2.30;;
33794;SDS011;51430;52.242;21.118;2023-04-25T14:13:59;3.40;;;2.70;;
33794;SDS011;51430;52.242;21.118;2023-04-25T14:16:27;3.30;;;2.90;;
33794;SDS011;51430;52.242;21.118;2023-04-25T14:18:56;3.50;;;2.90;;
33794;SDS011;51430;52.242;21.118;2023-04-25T14:21:26;4.90;;;3.00;;
33794;SDS011;51430;52.242;21.118;2023-04-25T14:23:54;3.50;;;3.20;;
33794;SDS011;51430;52.242;21.118;2023-04-25T14:26:22;4.30;;;3.50;;
33794;SDS011;51430;52.242;21.118;2023-04-25T14:28:51;5.10;;;3.60;;
33794;SDS011;51430;52.242;21.118;2023-04-25T14:31:19;4.30;;;3.80;;
33794;SDS011;51430;52.242;21.118;2023-04-25T14:33:47;4.00;;;3.60;;
33794;SDS011;51430;52.242;21.118;2023-04-25T14:36:15;6.50;;;4.40;;
33794;SDS011;51430;52.242;21.118;2023-04-25T14:38:43;5.80;;;3.80;;
33794;SDS011;51430;52.242;21.118;2023-04-25T14:41:11;4.50;;;4.00;;
33794;SDS011;51430;52.242;21.118;2023-04-25T14:43:39;4.50;;;4.00;;